Saiyn, Kazakhstan

4:34 AM AQTT on December 23, 2014 (GMT +0500)
Aktau | Change Station
CLOSE
Current Station
Airport
Location: Fort Sevcenko,
Elevation: 72 ft
Nearby Weather Stations

Elev 72 ft 43.86 °N, 51.09 °E | Updated 34 minutes ago

Overcast
Overcast
39 °F
Feels Like 28 °F
N
25
Wind Variable Wind from NNW

Today
High -- | Low -- °F
--% Chance of Precip.
Yesterday
High -- | Low -- °F
Precip. -- in
9:07 AM 6:01 PM
New Moon, 1% visible
Pressure 29.98 in
Visibility 6.2 miles
Clouds Overcast 900 ft
Windchill 28 °F
Dew Point 34 °F
Humidity 81%
Rainfall 0.00 in
Snow Depth Not available.
UV 0 out of 12
Pollen Not available.
Air Quality Not available.
Flu Activity Not available.
METAR UATE 222300Z 33011MPS 9999 OVC009 04/01 Q1015 R30/1///65 NOSIG RMK QFE760/1013

More Conditions Fewer Conditions

Pressure 29.98 in
Visibility 6.2 miles
Clouds Overcast 900 ft
Windchill 28 °F
Dew Point 34 °F
Humidity 81%
Rainfall 0.00 in
Snow Depth Not available.
UV 0 out of 12
Pollen Not available.
Air Quality Not available.
Flu Activity Not available.
METAR UATE 222300Z 33011MPS 9999 OVC009 04/01 Q1015 R30/1///65 NOSIG RMK QFE760/1013

More Conditions Fewer Conditions

10-Day Weather Forecast

Almanac

Astronomy

Dec. 23, 2014 Rise Set
Actual Time
Civil Twilight
Nautical Twilight
Astronomical Twilight
Moon
Length of Visible Light
Length of Day
Tomorrow will be .
, % of the Moon is Illuminated

Today's Extremes

Country Highs Country Lows

Community

WunderPhotos

Upload Photos

1,779,715 photos uploaded!

WunderBlogs® & News

Nearby

Air Quality

  Air Quality AQ Index Pollutant
Not available.

Snow Depth

Station Depth Elevation

Earthquake Activity

City Distance Mag. Time & Date
Minimum magnitude displayed is 2.5.

Coastal Water Temperatures

Place Temperature

Nearby Weather Stations